Time;durP1;ratioP1;P1;durP2;ratioP2;P2;SDS_P1;SDS_P2;PMS_P1;PMS_P2;Temp;Humidity;BMP_temperature;BMP_pressure;BME280_temperature;BME280_humidity;BME280_pressure;Samples;Min_cycle;Max_cycle;Signal;HPM_P1;HPM_P2
2024/03/17 00:01:49;;;;;;;13.93;6.78;;;;;;;12.10;55.53;102377.44;4969011;28;20039;-47
2024/03/17 00:04:15;;;;;;;15.65;7.13;;;;;;;11.86;56.60;102369.72;4968751;28;20128;-48
2024/03/17 00:06:40;;;;;;;17.30;7.32;;;;;;;12.04;55.72;102372.00;4968597;28;20046;-44
2024/03/17 00:09:09;;;;;;;17.67;7.47;;;;;;;11.91;56.55;102370.75;4970446;28;20053;-45
2024/03/17 00:11:35;;;;;;;15.45;7.53;;;;;;;11.87;56.61;102368.88;4969579;28;20434;-45
2024/03/17 00:14:03;;;;;;;14.70;7.60;;;;;;;11.97;56.67;102360.47;4969055;28;20046;-44
2024/03/17 00:16:28;;;;;;;18.65;7.30;;;;;;;11.86;57.14;102361.88;4968682;28;20125;-46
2024/03/17 00:18:55;;;;;;;16.20;7.97;;;;;;;11.92;57.20;102362.06;4969872;28;20031;-45
2024/03/17 00:21:21;;;;;;;14.25;6.97;;;;;;;11.79;57.66;102360.78;4967520;28;20039;-46
2024/03/17 00:23:49;;;;;;;16.48;7.60;;;;;;;12.02;57.29;102351.03;4966684;28;20069;-43
2024/03/17 00:26:15;;;;;;;14.88;7.65;;;;;;;11.54;58.51;102363.41;4969314;28;20053;-46
2024/03/17 00:28:40;;;;;;;18.15;7.50;;;;;;;11.85;57.89;102361.81;4967110;28;20042;-44
2024/03/17 00:31:05;;;;;;;23.52;8.05;;;;;;;11.75;58.13;102356.31;4966747;28;20576;-44
2024/03/17 00:33:31;;;;;;;16.70;7.93;;;;;;;11.85;57.86;102364.44;4965526;28;20174;-47
2024/03/17 00:35:56;;;;;;;16.23;8.05;;;;;;;11.74;58.03;102359.75;4966149;28;20051;-45
2024/03/17 00:38:21;;;;;;;15.68;8.18;;;;;;;11.77;58.13;102352.00;4966808;28;20038;-44
2024/03/17 00:40:48;;;;;;;21.73;8.25;;;;;;;11.77;58.33;102364.22;4966453;28;20069;-44
2024/03/17 00:43:14;;;;;;;15.57;7.82;;;;;;;11.95;57.55;102353.44;4965606;28;20078;-44
2024/03/17 00:45:39;;;;;;;18.73;7.95;;;;;;;11.89;57.40;102358.47;4965636;28;20039;-44
2024/03/17 00:48:06;;;;;;;18.70;7.78;;;;;;;11.82;57.85;102352.19;4966467;28;20051;-45
2024/03/17 00:50:32;;;;;;;16.08;7.60;;;;;;;11.92;57.42;102346.38;4964339;28;20053;-46
2024/03/17 00:52:57;;;;;;;19.25;8.57;;;;;;;11.70;58.17;102341.28;4966429;28;20046;-49
2024/03/17 00:55:22;;;;;;;17.90;8.40;;;;;;;11.76;58.14;102336.31;4966383;28;20138;-45
2024/03/17 00:57:47;;;;;;;14.70;8.00;;;;;;;11.75;58.06;102332.81;4964190;28;20043;-44
2024/03/17 01:00:15;;;;;;;17.73;8.07;;;;;;;11.97;57.58;102339.56;4966545;28;20054;-43
2024/03/17 01:02:40;;;;;;;16.15;8.30;;;;;;;12.20;56.98;102338.53;4965662;28;20046;-45
2024/03/17 01:05:06;;;;;;;19.05;8.48;;;;;;;11.89;57.84;102332.34;4966182;28;20042;-50
2024/03/17 01:07:32;;;;;;;15.80;8.10;;;;;;;11.93;57.63;102327.25;4966165;28;20046;-45
2024/03/17 01:09:57;;;;;;;16.88;8.07;;;;;;;12.08;57.33;102324.19;4966367;28;20126;-46
2024/03/17 01:12:22;;;;;;;18.10;8.82;;;;;;;11.92;57.71;102322.88;4965875;28;20627;-42
2024/03/17 01:14:48;;;;;;;16.33;8.23;;;;;;;12.02;57.10;102314.44;4965800;28;20070;-44
2024/03/17 01:17:13;;;;;;;16.95;8.52;;;;;;;12.12;56.90;102307.78;4966290;28;20453;-45
2024/03/17 01:19:38;;;;;;;18.48;8.82;;;;;;;12.02;57.27;102314.44;4965575;28;20383;-47
2024/03/17 01:22:04;;;;;;;20.35;9.57;;;;;;;12.01;57.10;102320.53;4966498;28;20043;-45
2024/03/17 01:24:33;;;;;;;20.42;8.88;;;;;;;11.68;58.35;102312.50;4965413;28;20069;-46
2024/03/17 01:26:59;;;;;;;15.48;8.52;;;;;;;11.76;58.26;102300.63;4968803;28;20125;-45
2024/03/17 01:29:24;;;;;;;17.45;9.30;;;;;;;11.85;57.73;102306.94;4968609;28;20038;-42
2024/03/17 01:31:50;;;;;;;20.58;9.35;;;;;;;11.94;57.82;102312.47;4965886;28;20074;-44
2024/03/17 01:34:16;;;;;;;20.10;9.40;;;;;;;11.56;58.83;102312.13;4967718;28;20046;-43
2024/03/17 01:36:41;;;;;;;16.17;9.80;;;;;;;11.68;58.45;102311.63;4966782;28;20126;-45
2024/03/17 01:39:07;;;;;;;19.58;10.13;;;;;;;11.55;59.46;102304.22;4966806;28;20524;-45
2024/03/17 01:41:32;;;;;;;18.02;9.60;;;;;;;11.43;59.59;102306.44;4967678;28;20537;-44
2024/03/17 01:43:58;;;;;;;19.13;9.85;;;;;;;11.57;59.94;102295.59;4967391;28;20054;-45
2024/03/17 01:46:24;;;;;;;20.13;9.95;;;;;;;11.61;59.53;102292.25;4967626;28;20050;-44
2024/03/17 01:48:50;;;;;;;18.45;9.77;;;;;;;11.67;59.41;102289.81;4965929;28;20067;-45
2024/03/17 01:51:15;;;;;;;17.23;9.50;;;;;;;11.37;60.40;102289.72;4967406;28;20466;-45
2024/03/17 01:53:42;;;;;;;20.30;9.80;;;;;;;11.40;60.33;102281.13;4964470;28;20097;-46
2024/03/17 01:56:13;;;;;;;16.60;9.05;;;;;;;11.45;60.36;102287.38;4967711;28;20786;-47
2024/03/17 01:58:40;;;;;;;16.25;9.30;;;;;;;11.45;60.26;102283.88;4965558;28;20583;-41
2024/03/17 02:01:06;;;;;;;17.17;9.68;;;;;;;11.77;59.30;102283.22;4966310;28;20049;-44
2024/03/17 02:03:31;;;;;;;16.98;9.85;;;;;;;11.80;58.95;102267.63;4964282;28;20118;-45
2024/03/17 02:05:58;;;;;;;19.67;9.25;;;;;;;11.62;59.94;102272.22;4966890;28;20043;-44
2024/03/17 02:08:24;;;;;;;17.55;9.60;;;;;;;11.81;59.36;102277.22;4966576;28;20526;-44
2024/03/17 02:10:56;;;;;;;21.80;9.65;;;;;;;11.90;59.00;102269.66;4969152;28;20042;-47
2024/03/17 02:13:21;;;;;;;19.83;9.57;;;;;;;12.00;58.64;102265.59;4968836;28;20070;-47
2024/03/17 02:15:47;;;;;;;18.42;9.55;;;;;;;12.04;58.55;102262.22;4969117;28;20050;-47
2024/03/17 02:18:13;;;;;;;19.30;9.55;;;;;;;11.92;58.82;102256.63;4970258;28;20042;-44
2024/03/17 02:23:26;;;;;;;18.77;9.38;;;;;;;11.99;58.56;102264.72;4968525;28;20042;-46
2024/03/17 02:25:51;;;;;;;19.92;9.23;;;;;;;11.84;59.09;102264.25;4969193;28;20123;-45
2024/03/17 02:28:17;;;;;;;18.38;9.40;;;;;;;11.91;58.95;102262.69;4969277;28;20132;-45
2024/03/17 02:30:42;;;;;;;17.33;9.13;;;;;;;11.89;58.98;102260.06;4969133;28;20071;-44
2024/03/17 02:33:07;;;;;;;18.98;8.95;;;;;;;12.01;58.53;102254.31;4968593;28;20097;-45
2024/03/17 02:35:33;;;;;;;17.70;8.98;;;;;;;12.07;58.12;102249.25;4969516;28;20046;-45
2024/03/17 02:37:58;;;;;;;17.05;9.40;;;;;;;12.02;58.61;102243.00;4968706;28;20046;-45
2024/03/17 02:40:23;;;;;;;17.17;8.82;;;;;;;12.04;58.15;102246.53;4968970;28;20049;-43
2024/03/17 02:42:49;;;;;;;16.50;8.80;;;;;;;11.88;59.06;102239.09;4968248;28;20054;-45
2024/03/17 02:45:14;;;;;;;16.00;8.95;;;;;;;11.83;59.04;102235.47;4968431;28;20122;-46
2024/03/17 02:47:40;;;;;;;16.67;9.50;;;;;;;12.18;58.12;102240.00;4968595;28;20035;-47
2024/03/17 02:50:06;;;;;;;19.42;9.73;;;;;;;12.12;58.20;102227.66;4967659;28;20519;-46
2024/03/17 02:52:31;;;;;;;18.90;8.98;;;;;;;12.15;58.37;102230.31;4967840;28;20051;-47
2024/03/17 02:54:56;;;;;;;20.85;9.95;;;;;;;11.87;59.15;102227.78;4967986;28;20027;-46
2024/03/17 02:57:24;;;;;;;18.77;9.38;;;;;;;12.02;58.89;102233.44;4967031;28;20035;-44
2024/03/17 02:59:51;;;;;;;17.60;9.45;;;;;;;12.01;58.97;102223.84;4967531;28;20063;-44
2024/03/17 03:02:17;;;;;;;17.98;9.90;;;;;;;11.97;59.45;102226.28;4967778;28;20382;-47
2024/03/17 03:04:42;;;;;;;18.73;10.07;;;;;;;11.96;59.26;102220.19;4967857;28;20041;-46
2024/03/17 03:07:07;;;;;;;18.30;9.00;;;;;;;11.97;59.22;102218.44;4968867;28;20133;-45
2024/03/17 03:09:33;;;;;;;19.65;9.70;;;;;;;12.07;59.36;102223.13;4968009;28;20042;-43
2024/03/17 03:12:04;;;;;;;19.20;9.98;;;;;;;11.78;60.16;102215.31;4968452;28;20054;-46
2024/03/17 03:14:31;;;;;;;17.85;9.63;;;;;;;11.88;59.75;102215.59;4968136;28;20050;-47
2024/03/17 03:16:57;;;;;;;18.70;9.27;;;;;;;11.81;59.80;102213.63;4968773;28;20058;-45
2024/03/17 03:19:22;;;;;;;16.20;9.50;;;;;;;11.87;59.67;102206.84;4967712;28;20415;-47
2024/03/17 03:21:48;;;;;;;19.55;9.90;;;;;;;12.07;59.18;102197.00;4968225;28;20059;-48
2024/03/17 03:24:14;;;;;;;17.35;9.80;;;;;;;11.73;60.11;102198.59;4968744;28;20081;-44
2024/03/17 03:26:40;;;;;;;18.90;10.05;;;;;;;11.79;59.54;102188.34;4967975;28;20563;-44
2024/03/17 03:29:05;;;;;;;17.45;9.60;;;;;;;12.14;58.86;102183.22;4968744;28;20165;-46
2024/03/17 03:31:34;;;;;;;17.10;9.80;;;;;;;12.16;58.31;102187.66;4967651;28;20042;-46
2024/03/17 03:34:03;;;;;;;20.13;10.00;;;;;;;11.98;58.99;102171.47;4967988;28;20051;-46
2024/03/17 03:36:29;;;;;;;17.00;9.98;;;;;;;12.10;58.70;102176.16;4968366;28;20047;-45
2024/03/17 03:38:54;;;;;;;19.95;9.75;;;;;;;11.93;59.25;102173.06;4969375;28;20085;-45
2024/03/17 03:41:22;;;;;;;18.15;9.73;;;;;;;11.96;59.41;102173.13;4968679;28;20038;-43
2024/03/17 03:43:48;;;;;;;19.67;10.32;;;;;;;12.13;58.83;102168.41;4969219;28;20051;-44
2024/03/17 03:46:13;;;;;;;21.10;10.02;;;;;;;11.85;59.76;102171.94;4968601;28;20099;-45
2024/03/17 03:48:38;;;;;;;17.52;10.27;;;;;;;11.85;60.24;102165.84;4967549;28;20039;-46
2024/03/17 03:51:08;;;;;;;20.20;10.88;;;;;;;12.05;59.51;102154.22;4968047;28;20527;-48
2024/03/17 03:53:34;;;;;;;21.58;10.52;;;;;;;11.88;60.32;102160.72;4967024;28;20118;-43
2024/03/17 03:56:01;;;;;;;21.00;10.80;;;;;;;11.88;60.11;102152.88;4967902;28;20728;-45
2024/03/17 03:58:27;;;;;;;19.45;10.25;;;;;;;11.92;60.25;102144.25;4968074;28;20062;-43
2024/03/17 04:00:53;;;;;;;18.55;10.50;;;;;;;11.96;59.98;102146.13;4967875;28;20096;-45
2024/03/17 04:03:18;;;;;;;21.27;10.77;;;;;;;11.92;59.86;102136.44;4967213;28;20051;-45
2024/03/17 04:05:43;;;;;;;20.63;11.32;;;;;;;11.77;60.57;102139.50;4966667;28;20078;-45
2024/03/17 04:08:09;;;;;;;20.90;11.80;;;;;;;11.96;59.82;102139.16;4968500;28;20119;-45
2024/03/17 04:10:35;;;;;;;20.35;10.45;;;;;;;11.71;60.81;102148.00;4968769;28;20600;-48
2024/03/17 04:13:00;;;;;;;20.40;10.35;;;;;;;11.57;61.08;102154.56;4967238;28;20046;-46
2024/03/17 04:15:25;;;;;;;18.17;10.40;;;;;;;11.50;61.71;102154.34;4967316;28;20054;-46
2024/03/17 04:17:52;;;;;;;21.38;11.02;;;;;;;11.80;60.80;102168.31;4966825;28;20077;-44
2024/03/17 04:20:17;;;;;;;18.70;10.15;;;;;;;11.50;61.70;102152.59;4967468;28;20055;-46
2024/03/17 04:22:43;;;;;;;21.13;10.95;;;;;;;11.74;61.03;102158.59;4965708;28;20042;-46
2024/03/17 04:25:09;;;;;;;19.75;10.45;;;;;;;11.53;61.94;102155.28;4966805;28;20038;-45
2024/03/17 04:27:34;;;;;;;19.17;10.15;;;;;;;11.33;63.32;102146.00;4965729;28;20043;-47
2024/03/17 04:30:00;;;;;;;22.15;11.15;;;;;;;11.54;62.24;102149.22;4965389;28;20039;-47
2024/03/17 04:32:30;;;;;;;20.55;10.73;;;;;;;11.79;61.36;102146.53;4965767;28;20066;-44
2024/03/17 04:34:56;;;;;;;19.33;10.27;;;;;;;11.88;61.43;102137.19;4964519;28;20050;-45
2024/03/17 04:37:22;;;;;;;17.27;10.40;;;;;;;12.07;60.67;102139.47;4965997;28;20043;-45
2024/03/17 04:39:47;;;;;;;19.58;10.38;;;;;;;12.00;60.85;102138.44;4967865;28;20042;-46
2024/03/17 04:42:14;;;;;;;19.50;10.07;;;;;;;12.01;60.72;102136.69;4966804;28;20046;-44
2024/03/17 04:44:43;;;;;;;16.55;10.00;;;;;;;11.95;60.82;102136.53;4964793;28;20050;-44
2024/03/17 04:47:10;;;;;;;16.45;9.77;;;;;;;11.64;62.02;102132.13;4966695;28;20523;-44
2024/03/17 04:49:40;;;;;;;18.60;10.20;;;;;;;11.78;61.78;102136.03;4966171;28;20038;-46
2024/03/17 04:52:07;;;;;;;17.88;10.35;;;;;;;11.82;61.39;102137.91;4966105;28;20138;-46
2024/03/17 04:54:32;;;;;;;17.67;10.32;;;;;;;11.85;61.21;102145.81;4965756;28;20469;-49
2024/03/17 04:56:58;;;;;;;19.80;10.68;;;;;;;11.78;61.68;102138.66;4965499;28;20050;-42
2024/03/17 04:59:24;;;;;;;17.90;10.55;;;;;;;11.78;61.88;102129.09;4965899;28;20114;-46
2024/03/17 05:01:49;;;;;;;18.10;10.10;;;;;;;11.93;61.32;102127.75;4965502;28;20045;-46
2024/03/17 05:04:15;;;;;;;18.55;10.60;;;;;;;11.99;60.93;102118.34;4966381;28;21426;-46
2024/03/17 05:06:41;;;;;;;21.55;10.55;;;;;;;12.05;60.52;102128.97;4965576;28;20118;-44
2024/03/17 05:09:08;;;;;;;19.73;10.68;;;;;;;12.02;60.61;102127.97;4966422;28;20174;-45
2024/03/17 05:11:35;;;;;;;18.67;10.13;;;;;;;12.00;60.44;102119.25;4966462;28;20085;-45
2024/03/17 05:14:00;;;;;;;18.85;10.60;;;;;;;12.02;60.52;102123.66;4963987;28;20065;-43
2024/03/17 05:16:26;;;;;;;19.17;10.52;;;;;;;11.92;60.62;102120.75;4965738;28;20130;-47
2024/03/17 05:18:51;;;;;;;19.80;10.73;;;;;;;11.62;61.44;102119.00;4965878;28;20065;-48
2024/03/17 05:21:16;;;;;;;19.60;11.10;;;;;;;11.87;61.33;102118.00;4966581;28;20056;-46
2024/03/17 05:23:42;;;;;;;21.33;11.40;;;;;;;11.86;61.14;102128.41;4965841;28;21945;-46
2024/03/17 05:26:07;;;;;;;19.23;11.23;;;;;;;11.68;61.62;102129.63;4965906;28;20175;-46
2024/03/17 05:28:33;;;;;;;20.05;10.63;;;;;;;11.87;61.47;102130.19;4963993;28;20067;-46
2024/03/17 05:30:59;;;;;;;21.42;11.50;;;;;;;11.65;62.04;102124.31;4966407;28;20182;-46
2024/03/17 05:33:25;;;;;;;20.15;11.15;;;;;;;11.66;61.71;102128.69;4964939;28;20058;-43
2024/03/17 05:35:53;;;;;;;21.55;12.00;;;;;;;11.86;61.46;102124.06;4965548;28;20058;-45
2024/03/17 05:38:26;;;;;;;20.90;11.55;;;;;;;12.02;61.08;102123.66;4966039;28;20046;-44
2024/03/17 05:41:01;;;;;;;17.95;10.60;;;;;;;11.58;62.31;102125.00;4965597;28;20035;-44
2024/03/17 05:43:37;;;;;;;20.55;11.25;;;;;;;11.73;62.25;102122.84;4966893;28;20042;-46
2024/03/17 05:46:10;;;;;;;19.73;11.25;;;;;;;11.94;61.35;102117.34;4970017;28;20417;-45
2024/03/17 05:48:40;;;;;;;20.35;11.80;;;;;;;11.59;62.47;102121.53;4969046;28;20035;-46
2024/03/17 05:51:07;;;;;;;19.20;10.80;;;;;;;11.82;61.72;102113.50;4969368;28;20182;-45
2024/03/17 05:53:32;;;;;;;22.38;11.52;;;;;;;11.88;61.00;102104.13;4968171;28;20043;-47
2024/03/17 05:56:02;;;;;;;20.23;11.25;;;;;;;12.07;60.56;102110.72;4968420;28;20049;-45
2024/03/17 05:58:28;;;;;;;18.67;10.85;;;;;;;12.08;60.37;102105.50;4968494;28;20070;-45
2024/03/17 06:00:53;;;;;;;19.20;11.20;;;;;;;11.79;61.46;102117.78;4969231;28;20045;-46
2024/03/17 06:03:19;;;;;;;19.48;10.75;;;;;;;11.83;61.73;102110.06;4968846;28;20042;-45
2024/03/17 06:05:45;;;;;;;19.13;11.02;;;;;;;12.15;60.78;102117.03;4970019;28;20424;-43
2024/03/17 06:08:11;;;;;;;19.48;11.20;;;;;;;12.17;60.38;102121.47;4971048;28;20043;-47
2024/03/17 06:10:37;;;;;;;19.73;10.75;;;;;;;12.39;59.65;102122.00;4970200;28;20105;-47
2024/03/17 06:13:03;;;;;;;21.60;11.50;;;;;;;12.17;60.06;102117.97;4968307;28;20043;-43
2024/03/17 06:15:30;;;;;;;18.98;10.95;;;;;;;12.31;59.89;102121.84;4968013;28;20102;-45
2024/03/17 06:17:56;;;;;;;20.88;11.05;;;;;;;12.49;59.42;102114.47;4968824;28;20144;-44
2024/03/17 06:20:26;;;;;;;18.38;10.90;;;;;;;12.16;60.15;102119.69;4969273;28;20572;-44
2024/03/17 06:22:56;;;;;;;19.85;11.15;;;;;;;12.30;59.42;102117.44;4992180;23;20046;-41
2024/03/17 06:25:23;;;;;;;18.83;10.93;;;;;;;12.39;59.30;102116.78;4992933;28;20359;-41
2024/03/17 06:27:52;;;;;;;18.10;10.85;;;;;;;12.55;59.17;102121.56;4992661;28;20031;-43
2024/03/17 06:30:18;;;;;;;21.27;11.85;;;;;;;12.25;59.82;102118.16;4993578;28;20030;-41
2024/03/17 06:32:45;;;;;;;18.40;11.00;;;;;;;12.40;59.71;102122.06;4993776;28;20030;-41
2024/03/17 06:35:11;;;;;;;18.60;11.02;;;;;;;12.38;59.71;102117.66;4996469;28;20031;-41
2024/03/17 06:37:36;;;;;;;19.40;10.80;;;;;;;12.50;59.77;102118.81;4994763;28;20443;-43
2024/03/17 06:40:03;;;;;;;18.38;11.02;;;;;;;12.52;59.33;102116.25;4994826;28;20087;-42
2024/03/17 06:42:29;;;;;;;18.38;10.98;;;;;;;12.48;59.41;102115.28;4994759;28;20027;-42
2024/03/17 06:44:54;;;;;;;21.02;10.73;;;;;;;12.69;58.63;102109.69;4996087;28;20037;-41
2024/03/17 06:47:20;;;;;;;18.95;10.88;;;;;;;12.80;58.54;102110.88;4995577;28;20034;-42
2024/03/17 06:49:45;;;;;;;18.85;10.68;;;;;;;12.90;58.29;102117.19;4993885;28;20084;-42
2024/03/17 06:52:10;;;;;;;18.27;11.07;;;;;;;12.96;57.55;102123.44;4993145;28;20038;-42
2024/03/17 06:54:36;;;;;;;17.48;10.90;;;;;;;12.76;58.53;102129.03;4991774;28;20053;-41
2024/03/17 06:57:01;;;;;;;17.63;10.13;;;;;;;12.74;58.71;102122.91;4993210;28;20042;-43
2024/03/17 06:59:26;;;;;;;17.48;10.32;;;;;;;12.56;59.20;102115.50;4992647;28;20042;-42
2024/03/17 07:01:52;;;;;;;17.55;10.18;;;;;;;12.71;58.73;102122.81;4992843;28;20038;-39
2024/03/17 07:04:17;;;;;;;17.42;10.15;;;;;;;12.40;59.90;102121.16;4992704;28;20034;-41
2024/03/17 07:06:43;;;;;;;18.65;10.88;;;;;;;12.49;59.49;102121.41;4991800;28;20039;-44
2024/03/17 07:09:08;;;;;;;17.63;10.45;;;;;;;12.96;58.45;102123.44;4994216;28;20121;-41
2024/03/17 07:11:34;;;;;;;17.02;10.43;;;;;;;13.03;57.88;102121.88;4993053;28;20041;-43
2024/03/17 07:13:59;;;;;;;22.80;10.40;;;;;;;12.86;58.53;102116.25;4990860;28;20062;-42
2024/03/17 07:16:25;;;;;;;18.60;10.75;;;;;;;13.01;57.88;102116.59;4992389;28;20038;-44
2024/03/17 07:18:52;;;;;;;17.30;10.32;;;;;;;13.11;57.69;102116.81;4992193;28;20034;-44
2024/03/17 07:21:18;;;;;;;17.35;10.52;;;;;;;13.20;57.66;102130.13;4992423;28;20064;-44
2024/03/17 07:23:43;;;;;;;21.77;10.55;;;;;;;12.96;58.52;102127.81;4991841;28;20134;-42
2024/03/17 07:26:09;;;;;;;21.25;11.02;;;;;;;13.36;57.43;102130.50;4992413;28;20026;-45
2024/03/17 07:28:34;;;;;;;19.98;10.80;;;;;;;13.62;56.22;102127.56;4993922;28;20038;-41
2024/03/17 07:31:00;;;;;;;21.15;10.68;;;;;;;13.77;55.88;102133.13;4994727;28;20042;-42
2024/03/17 07:33:26;;;;;;;18.52;10.73;;;;;;;13.74;56.03;102133.94;4993393;28;20510;-41
2024/03/17 07:35:54;;;;;;;20.00;10.70;;;;;;;13.41;56.74;102133.25;4991131;28;20094;-43
2024/03/17 07:38:20;;;;;;;17.90;11.00;;;;;;;13.25;57.55;102126.75;4991611;28;20037;-41
2024/03/17 07:40:57;;;;;;;18.40;10.90;;;;;;;13.37;57.20;102126.16;4991124;28;20090;-45
2024/03/17 07:43:23;;;;;;;18.98;11.38;;;;;;;13.17;58.10;102128.34;4991102;28;20088;-41
2024/03/17 07:46:06;;;;;;;20.27;11.40;;;;;;;13.62;56.86;102138.03;4990811;28;20038;-42
2024/03/17 07:48:33;;;;;;;20.00;11.02;;;;;;;13.22;58.36;102125.81;4991039;28;20030;-44
2024/03/17 07:51:00;;;;;;;22.67;11.82;;;;;;;13.39;57.66;102129.69;4991427;28;20030;-41
2024/03/17 07:53:26;;;;;;;20.52;11.70;;;;;;;13.67;57.00;102134.66;4990721;28;20097;-41
2024/03/17 07:56:06;;;;;;;22.73;11.55;;;;;;;13.86;56.73;102143.78;4990809;28;20035;-42
2024/03/17 07:58:33;;;;;;;21.00;11.82;;;;;;;14.11;56.17;102138.16;4990808;28;20073;-41
2024/03/17 08:01:03;;;;;;;20.75;11.38;;;;;;;13.85;56.75;102135.88;4990866;28;20118;-43
2024/03/17 08:03:40;;;;;;;20.88;11.73;;;;;;;14.01;56.49;102137.97;4990231;28;20110;-42
2024/03/17 08:06:07;;;;;;;26.80;11.88;;;;;;;14.02;56.29;102137.13;4990433;28;20447;-44
2024/03/17 08:08:33;;;;;;;17.83;11.23;;;;;;;14.01;56.20;102135.34;4990679;28;20037;-44
2024/03/17 08:10:58;;;;;;;18.38;11.10;;;;;;;13.91;56.70;102125.50;4990897;28;20563;-43
2024/03/17 08:13:24;;;;;;;17.73;10.55;;;;;;;13.85;56.96;102134.13;4990186;28;20038;-44
2024/03/17 08:16:17;;;;;;;18.67;11.02;;;;;;;13.89;56.91;102128.13;4990407;28;20073;-42
2024/03/17 08:18:42;;;;;;;19.58;11.02;;;;;;;13.92;56.79;102122.03;4988164;28;20125;-41
2024/03/17 08:21:07;;;;;;;18.08;11.38;;;;;;;14.10;56.33;102130.25;4990807;28;20118;-41
2024/03/17 08:23:35;;;;;;;17.85;10.77;;;;;;;14.35;55.73;102124.63;4988430;28;20129;-39
2024/03/17 08:26:01;;;;;;;18.27;10.80;;;;;;;14.14;56.08;102132.09;4990624;28;20026;-41
2024/03/17 08:28:27;;;;;;;19.67;11.60;;;;;;;14.12;56.38;102133.81;4988899;28;20124;-43
2024/03/17 08:31:00;;;;;;;19.25;11.52;;;;;;;14.29;56.02;102124.50;4990863;28;20049;-41
2024/03/17 08:33:27;;;;;;;19.20;11.57;;;;;;;14.25;56.18;102122.69;4991714;28;20039;-46
2024/03/17 08:35:56;;;;;;;18.80;11.80;;;;;;;14.14;56.75;102119.00;4991880;28;20034;-44
2024/03/17 08:38:23;;;;;;;19.20;11.65;;;;;;;14.14;56.90;102114.63;4990813;28;20038;-43
2024/03/17 08:40:52;;;;;;;19.65;11.13;;;;;;;14.15;56.73;102116.38;4989820;28;20043;-43
2024/03/17 08:43:18;;;;;;;22.25;11.27;;;;;;;14.32;56.38;102113.19;4989973;28;20062;-44
2024/03/17 08:45:44;;;;;;;20.77;11.48;;;;;;;14.32;56.47;102113.19;4989707;28;20050;-40
2024/03/17 08:48:12;;;;;;;20.95;11.68;;;;;;;14.37;56.29;102114.16;4990592;28;20041;-42
2024/03/17 08:50:38;;;;;;;21.15;12.05;;;;;;;14.71;55.58;102113.88;4990058;28;20034;-42
2024/03/17 08:53:03;;;;;;;17.63;10.82;;;;;;;14.91;55.50;102098.44;4989685;28;20405;-44
2024/03/17 08:55:29;;;;;;;24.10;12.10;;;;;;;14.94;55.30;102103.75;4989974;28;20060;-42
2024/03/17 08:57:54;;;;;;;18.83;11.20;;;;;;;15.11;55.03;102097.00;4989473;28;20035;-44
2024/03/17 09:00:19;;;;;;;18.48;11.05;;;;;;;15.33;53.95;102095.53;4990946;28;20044;-42
2024/03/17 09:02:45;;;;;;;19.02;11.32;;;;;;;15.21;54.50;102092.75;4990407;28;20061;-44
2024/03/17 09:05:12;;;;;;;18.33;11.23;;;;;;;15.22;53.86;102084.00;4992374;28;20118;-41
2024/03/17 09:07:38;;;;;;;19.17;11.40;;;;;;;15.62;53.26;102085.44;4992109;28;20038;-42
2024/03/17 09:10:03;;;;;;;18.27;11.10;;;;;;;16.01;52.66;102085.00;4992189;28;20034;-43
2024/03/17 09:12:29;;;;;;;17.23;10.95;;;;;;;16.20;51.61;102079.06;4988489;28;20058;-43
2024/03/17 09:14:54;;;;;;;16.27;9.80;;;;;;;16.62;50.77;102084.72;4989084;28;20030;-47
2024/03/17 09:17:20;;;;;;;15.68;10.45;;;;;;;16.84;50.08;102084.88;4990558;28;20030;-41
2024/03/17 09:19:47;;;;;;;15.55;9.32;;;;;;;16.81;49.44;102076.97;4993877;28;21990;-41
2024/03/17 09:22:13;;;;;;;15.80;9.48;;;;;;;16.99;48.38;102082.34;4993637;28;20034;-41
2024/03/17 09:24:38;;;;;;;15.00;9.60;;;;;;;17.10;47.77;102080.66;4993581;28;20497;-43
2024/03/17 09:27:05;;;;;;;14.73;9.02;;;;;;;17.13;47.46;102083.31;4994228;28;20054;-44
2024/03/17 09:29:30;;;;;;;15.40;9.38;;;;;;;17.17;47.36;102074.56;4993786;28;20555;-42
2024/03/17 09:31:55;;;;;;;14.73;9.52;;;;;;;17.18;47.24;102078.06;4994059;28;20034;-41
2024/03/17 09:34:21;;;;;;;13.77;9.18;;;;;;;17.40;47.06;102072.00;4994239;28;20038;-44
2024/03/17 09:36:47;;;;;;;15.18;9.15;;;;;;;17.39;47.16;102072.88;4993670;28;20039;-43
2024/03/17 09:39:14;;;;;;;14.35;9.25;;;;;;;17.36;46.46;102068.50;4994710;28;20034;-40
2024/03/17 09:41:39;;;;;;;15.35;9.05;;;;;;;17.42;47.23;102073.78;4993923;28;20030;-43
2024/03/17 09:44:07;;;;;;;16.67;9.43;;;;;;;17.50;46.84;102065.94;4993814;28;20452;-41
2024/03/17 09:46:33;;;;;;;13.07;8.50;;;;;;;17.38;46.99;102061.47;4993944;28;20030;-39
2024/03/17 09:48:59;;;;;;;14.00;8.77;;;;;;;17.71;46.78;102060.75;4995703;28;20034;-43
2024/03/17 09:51:25;;;;;;;15.55;9.00;;;;;;;17.77;46.38;102062.50;4995927;28;20628;-43
2024/03/17 09:53:51;;;;;;;17.38;9.30;;;;;;;18.00;45.96;102057.28;4994778;28;20034;-42
2024/03/17 09:56:20;;;;;;;14.85;9.55;;;;;;;18.15;45.69;102063.47;4994051;28;20034;-46
2024/03/17 09:58:46;;;;;;;13.70;8.93;;;;;;;18.03;45.81;102054.66;4994677;28;20130;-41
2024/03/17 10:01:11;;;;;;;13.30;8.63;;;;;;;18.13;45.21;102059.94;4995049;28;20408;-40
2024/03/17 10:03:46;;;;;;;16.00;8.88;;;;;;;18.11;44.99;102058.19;4994010;28;20036;-42
2024/03/17 10:06:15;;;;;;;13.48;8.88;;;;;;;18.14;45.69;102059.06;4996549;28;20034;-45
2024/03/17 10:08:53;;;;;;;14.68;9.02;;;;;;;18.00;45.49;102044.97;5007843;28;20076;-44
2024/03/17 10:11:21;;;;;;;17.17;9.20;;;;;;;18.28;45.10;102047.66;5009711;28;20085;-47
2024/03/17 10:13:58;;;;;;;14.27;9.20;;;;;;;18.18;45.35;102045.00;4998814;28;20203;-41
2024/03/17 10:16:26;;;;;;;14.30;8.77;;;;;;;18.48;44.82;102048.53;4994319;28;20133;-42
2024/03/17 10:19:10;;;;;;;15.13;9.13;;;;;;;18.22;45.50;102049.41;4993549;28;20563;-44
2024/03/17 10:21:37;;;;;;;15.95;9.30;;;;;;;18.14;45.88;102050.28;4993025;28;20097;-42
2024/03/17 10:24:07;;;;;;;15.23;8.50;;;;;;;18.51;45.57;102052.03;4993050;28;20061;-43
2024/03/17 10:26:52;;;;;;;13.82;8.95;;;;;;;18.50;45.51;102049.41;4993391;28;20061;-40
2024/03/17 10:29:19;;;;;;;12.90;8.07;;;;;;;18.68;45.28;102051.16;4992892;28;20456;-45
2024/03/17 10:31:45;;;;;;;14.02;8.55;;;;;;;19.05;45.04;102050.22;4992796;28;20461;-42
2024/03/17 10:34:17;;;;;;;13.07;8.30;;;;;;;19.08;44.97;102042.28;4992256;28;20065;-41
2024/03/17 10:36:42;;;;;;;12.82;8.15;;;;;;;19.30;44.32;102043.97;4994043;28;20464;-43
2024/03/17 10:39:43;;;;;;;14.30;8.05;;;;;;;19.31;44.66;102045.72;4993451;28;20030;-42
2024/03/17 10:42:11;;;;;;;13.45;7.85;;;;;;;19.51;44.79;102044.81;4943965;28;20653;-42
2024/03/17 10:44:39;;;;;;;11.88;7.60;;;;;;;19.13;45.06;102051.09;4994246;28;20070;-42
2024/03/17 10:47:12;;;;;;;12.88;8.00;;;;;;;19.77;44.20;102042.88;4995109;28;20038;-42
2024/03/17 10:49:38;;;;;;;12.35;7.72;;;;;;;19.46;44.40;102036.03;4992532;28;20112;-44
2024/03/17 10:52:05;;;;;;;12.52;7.30;;;;;;;19.52;44.57;102033.34;4992300;28;20038;-43
2024/03/17 10:54:31;;;;;;;13.75;8.00;;;;;;;19.48;45.09;102039.50;4991849;28;20038;-43
2024/03/17 10:57:26;;;;;;;14.10;8.20;;;;;;;19.31;45.48;102040.44;4992623;28;20130;-44
2024/03/17 10:59:52;;;;;;;13.93;8.02;;;;;;;19.62;44.95;102027.97;4981587;28;20041;-42
2024/03/17 11:02:22;;;;;;;15.10;7.40;;;;;;;19.24;45.75;102025.47;4992228;28;20501;-45
2024/03/17 11:04:52;;;;;;;13.18;7.47;;;;;;;19.49;45.81;102033.34;4991721;28;20382;-47
2024/03/17 11:07:19;;;;;;;14.27;7.63;;;;;;;19.51;45.75;102032.47;4992662;28;20030;-44
2024/03/17 11:09:47;;;;;;;15.70;7.38;;;;;;;19.32;46.29;102026.34;4992530;28;20041;-47
2024/03/17 11:12:37;;;;;;;12.95;6.70;;;;;;;19.42;45.85;102021.88;4993107;28;20027;-46
2024/03/17 11:15:31;;;;;;;12.77;7.32;;;;;;;19.06;47.36;102014.97;4985310;28;20042;-42
2024/03/17 11:18:12;;;;;;;;;;;;;;;19.00;46.97;102009.72;4993674;28;20031;-42